| time (UTC) | temp C | wind direction | speed KPH | gust KPH | rain 1hr cm | rain 24hr cm | rain mn cm | humidity % | barometer mb |
| 20260509211606 | 32 | 59 | 4.8 | 9.7 | 0.00 | 0.08 | 0.08 | 48 | 1007.6 |
| 20260509210023 | 32 | 64 | 1.6 | 6.4 | 0.00 | 0.08 | 0.08 | 46 | 1007.9 |
| 20260509204524 | 31 | 111 | 4.8 | 12.9 | 0.00 | 0.08 | 0.08 | 46 | 1008.2 |
| 20260509203041 | 31 | 177 | 4.8 | 12.9 | 0.00 | 0.08 | 0.08 | 48 | 1008.4 |
| 20260509201611 | 31 | 211 | 4.8 | 12.9 | 0.00 | 0.08 | 0.08 | 49 | 1008.6 |
| 20260509200025 | 31 | 160 | 4.8 | 11.3 | 0.00 | 0.08 | 0.08 | 49 | 1008.7 |
| 20260509194532 | 30 | 90 | 1.6 | 11.3 | 0.00 | 0.08 | 0.08 | 48 | 1009.2 |
| 20260509193034 | 30 | 71 | 4.8 | 16.1 | 0.00 | 0.08 | 0.08 | 50 | 1009.3 |
| 20260509191544 | 30 | 5 | 4.8 | 14.5 | 0.00 | 0.08 | 0.08 | 51 | 1009.4 |
| 20260509190051 | 30 | 42 | 3.2 | 12.9 | 0.00 | 0.08 | 0.08 | 51 | 1009.6 |
| 20260509184505 | 30 | 5 | 3.2 | 9.7 | 0.00 | 0.10 | 0.08 | 53 | 1009.7 |
| 20260509183027 | 29 | 41 | 4.8 | 12.9 | 0.00 | 0.10 | 0.08 | 54 | 1009.8 |
| 20260509181550 | 28 | 107 | 3.2 | 17.7 | 0.00 | 0.10 | 0.08 | 56 | 1010.1 |
| 20260509180052 | 28 | 335 | 6.4 | 12.9 | 0.00 | 0.10 | 0.08 | 53 | 1010.4 |
| 20260509174501 | 28 | 329 | 6.4 | 14.5 | 0.00 | 0.10 | 0.08 | 55 | 1010.5 |
| 20260509173036 | 28 | 10 | 1.6 | 20.9 | 0.00 | 0.10 | 0.08 | 58 | 1010.6 |
| 20260509171604 | 28 | 26 | 6.4 | 14.5 | 0.00 | 0.10 | 0.08 | 58 | 1010.7 |
| 20260509170007 | 27 | 315 | 6.4 | 14.5 | 0.00 | 0.10 | 0.08 | 64 | 1010.8 |
| 20260509164526 | 27 | 287 | 4.8 | 14.5 | 0.00 | 0.10 | 0.08 | 62 | 1010.9 |
| 20260509163102 | 27 | 273 | 4.8 | 14.5 | 0.00 | 0.10 | 0.08 | 63 | 1011.0 |
| 20260509161526 | 26 | 355 | 4.8 | 14.5 | 0.00 | 0.10 | 0.08 | 62 | 1011.0 |
| 20260509160047 | 26 | 348 | 3.2 | 8.0 | 0.00 | 0.10 | 0.08 | 66 | 1011.1 |
| 20260509154618 | 25 | 344 | 6.4 | 12.9 | 0.00 | 0.10 | 0.08 | 68 | 1011.2 |
| 20260509153031 | 25 | 304 | 8.0 | 16.1 | 0.00 | 0.10 | 0.08 | 69 | 1011.3 |
| 20260509151553 | 24 | 355 | 8.0 | 17.7 | 0.00 | 0.10 | 0.08 | 72 | 1011.3 |
| 20260509150117 | 24 | 292 | 8.0 | 17.7 | 0.00 | 0.10 | 0.08 | 73 | 1011.5 |
| 20260509144539 | 24 | 322 | 8.0 | 14.5 | 0.00 | 0.10 | 0.08 | 74 | 1011.3 |
| 20260509143059 | 23 | 314 | 4.8 | 12.9 | 0.00 | 0.10 | 0.08 | 76 | 1011.3 |
| 20260509141516 | 23 | 16 | 6.4 | 14.5 | 0.00 | 0.10 | 0.08 | 77 | 1011.3 |
| 20260509140054 | 22 | 307 | 6.4 | 12.9 | 0.00 | 0.10 | 0.08 | 79 | 1011.3 |
| 20260509134504 | 22 | 319 | 4.8 | 8.0 | 0.00 | 0.10 | 0.08 | 83 | 1011.1 |
| 20260509133033 | 21 | 331 | 8.0 | 14.5 | 0.00 | 0.10 | 0.08 | 84 | 1010.9 |
| 20260509131605 | 21 | 284 | 3.2 | 6.4 | 0.00 | 0.10 | 0.08 | 88 | 1010.6 |
| 20260509130114 | 20 | 9 | 0.0 | 6.4 | 0.00 | 0.10 | 0.08 | 90 | 1010.3 |
| 20260509124524 | 20 | 340 | 6.4 | 12.9 | 0.00 | 0.10 | 0.08 | 91 | 1009.9 |
| 20260509123029 | 20 | 21 | 4.8 | 9.7 | 0.00 | 0.10 | 0.08 | 91 | 1009.7 |
| 20260509121551 | 20 | 337 | 6.4 | 14.5 | 0.00 | 0.10 | 0.08 | 91 | 1009.8 |
| 20260509120000 | 20 | 355 | 3.2 | 14.5 | 0.00 | 0.10 | 0.08 | 91 | 1009.8 |
| 20260509114516 | 20 | 326 | 4.8 | 12.9 | 0.00 | 0.10 | 0.08 | 91 | 1009.6 |
| 20260509113036 | 20 | 331 | 8.0 | 16.1 | 0.00 | 0.10 | 0.08 | 91 | 1010.0 |
| 20260509111538 | 20 | 321 | 9.7 | 17.7 | 0.00 | 0.10 | 0.08 | 91 | 1009.8 |
| 20260509110042 | 20 | 308 | 4.8 | 12.9 | 0.00 | 0.10 | 0.08 | 91 | 1009.3 |
| 20260509104549 | 20 | 327 | 8.0 | 30.6 | 0.00 | 0.10 | 0.08 | 92 | 1009.2 |
| 20260509103110 | 20 | 216 | 19.3 | 32.2 | 0.03 | 0.10 | 0.08 | 93 | 1007.4 |
| 20260509101502 | 20 | 221 | 25.7 | 43.5 | 0.03 | 0.10 | 0.08 | 94 | 1006.9 |
| 20260509100028 | 20 | 204 | 25.7 | 38.6 | 0.03 | 0.10 | 0.08 | 93 | 1007.3 |
| 20260509094555 | 20 | 199 | 22.5 | 33.8 | 0.03 | 0.10 | 0.08 | 93 | 1007.7 |
| 20260509093116 | 20 | 238 | 16.1 | 24.1 | 0.00 | 0.08 | 0.05 | 94 | 1008.6 |
| 20260509091521 | 20 | 182 | 11.3 | 17.7 | 0.00 | 0.08 | 0.05 | 94 | 1008.7 |
| 20260509090044 | 20 | 209 | 12.9 | 19.3 | 0.05 | 0.08 | 0.05 | 94 | 1009.3 |
| 20260509084552 | 20 | 194 | 11.3 | 20.9 | 0.05 | 0.08 | 0.05 | 94 | 1009.6 |
| 20260509083108 | 20 | 180 | 11.3 | 16.1 | 0.05 | 0.08 | 0.05 | 93 | 1010.1 |
| 20260509081615 | 20 | 201 | 6.4 | 9.7 | 0.05 | 0.08 | 0.05 | 93 | 1011.1 |
| 20260509080019 | 20 | 160 | 6.4 | 11.3 | 0.00 | 0.03 | 0.00 | 93 | 1011.3 |
| 20260509074510 | 19 | 347 | 0.0 | 6.4 | 0.00 | 0.03 | 0.00 | 93 | 1012.4 |
| 20260509073011 | 19 | 27 | 8.0 | 12.9 | 0.00 | 0.03 | 0.00 | 93 | 1012.7 |
| 20260509071522 | 19 | 328 | 0.0 | 4.8 | 0.00 | 0.03 | 0.00 | 93 | 1012.6 |
| 20260509070043 | 18 | 329 | 3.2 | 8.0 | 0.00 | 0.03 | 0.00 | 93 | 1012.3 |
| 20260509064620 | 18 | 348 | 6.4 | 12.9 | 0.00 | 0.03 | 0.00 | 92 | 1011.7 |
| 20260509063012 | 18 | 111 | 1.6 | 3.2 | 0.00 | 0.03 | 0.00 | 91 | 1010.6 |
| 20260509061522 | 18 | 111 | 1.6 | 4.8 | 0.00 | 0.03 | 0.00 | 91 | 1010.3 |
| 20260509060025 | 19 | 94 | 0.0 | 3.2 | 0.00 | 0.03 | 0.00 | 91 | 1010.7 |
| 20260509054539 | 19 | 92 | 1.6 | 6.4 | 0.00 | 0.03 | 0.00 | 90 | 1010.6 |
| 20260509053052 | 19 | 81 | 1.6 | 4.8 | 0.00 | 0.03 | 0.00 | 90 | 1010.8 |
| 20260509051516 | 20 | 126 | 3.2 | 4.8 | 0.00 | 0.03 | 0.00 | 90 | 1010.5 |
| 20260509050046 | 20 | 191 | 3.2 | 9.7 | 0.00 | 0.03 | 0.00 | 90 | 1010.2 |
| 20260509044553 | 20 | 187 | 3.2 | 6.4 | 0.00 | 0.03 | 0.03 | 90 | 1010.2 |
| 20260509043100 | 20 | 174 | 4.8 | 8.0 | 0.00 | 0.03 | 0.03 | 89 | 1010.2 |
| 20260509041601 | 20 | 179 | 3.2 | 6.4 | 0.00 | 0.03 | 0.03 | 89 | 1010.2 |
| 20260509040101 | 20 | 181 | 3.2 | 6.4 | 0.00 | 0.03 | 0.03 | 89 | 1010.3 |
| 20260509034611 | 20 | 181 | 0.0 | 0.0 | 0.00 | 0.03 | 0.03 | 88 | 1010.5 |
| 20260509033123 | 21 | 181 | 0.0 | 0.0 | 0.00 | 0.03 | 0.03 | 87 | 1010.4 |
| 20260509031502 | 21 | 181 | 0.0 | 3.2 | 0.00 | 0.03 | 0.03 | 87 | 1010.4 |
| 20260509030002 | 21 | 181 | 1.6 | 6.4 | 0.00 | 0.03 | 0.03 | 86 | 1010.0 |
| 20260509024516 | 21 | 180 | 3.2 | 6.4 | 0.00 | 0.03 | 0.03 | 86 | 1009.7 |
| 20260509023025 | 21 | 181 | 0.0 | 0.0 | 0.00 | 0.03 | 0.03 | 85 | 1009.8 |
| 20260509021524 | 22 | 181 | 0.0 | 3.2 | 0.00 | 0.03 | 0.03 | 85 | 1009.6 |
| 20260509020035 | 22 | 181 | 0.0 | 6.4 | 0.00 | 0.03 | 0.03 | 84 | 1009.5 |
| 20260509014538 | 22 | 160 | 3.2 | 9.7 | 0.00 | 0.03 | 0.03 | 84 | 1009.2 |
| 20260509013046 | 22 | 165 | 1.6 | 6.4 | 0.00 | 0.03 | 0.03 | 84 | 1008.9 |
| 20260509011544 | 22 | 161 | 1.6 | 8.0 | 0.00 | 0.03 | 0.03 | 83 | 1008.5 |
| 20260509010047 | 23 | 175 | 3.2 | 6.4 | 0.00 | 0.03 | 0.03 | 82 | 1008.4 |
| 20260509004539 | 23 | 161 | 11.3 | 22.5 | 0.00 | 0.03 | 0.03 | 81 | 1008.3 |
| 20260509003037 | 23 | 161 | 8.0 | 14.5 | 0.00 | 0.03 | 0.03 | 80 | 1008.4 |
| 20260509001539 | 23 | 244 | 4.8 | 11.3 | 0.00 | 0.03 | 0.03 | 79 | 1008.3 |
| 20260509000033 | 24 | 196 | 6.4 | 16.1 | 0.00 | 0.03 | 0.03 | 79 | 1008.3 |
| 20260508234538 | 24 | 190 | 12.9 | 20.9 | 0.00 | 0.03 | 0.03 | 78 | 1008.3 |
| 20260508233042 | 24 | 173 | 12.9 | 17.7 | 0.00 | 0.03 | 0.03 | 78 | 1008.4 |
| 20260508231536 | 25 | 190 | 9.7 | 17.7 | 0.00 | 0.03 | 0.03 | 76 | 1008.3 |
| 20260508230047 | 25 | 171 | 9.7 | 19.3 | 0.00 | 0.03 | 0.03 | 76 | 1008.3 |
| 20260508224542 | 25 | 123 | 8.0 | 19.3 | 0.00 | 0.03 | 0.03 | 76 | 1008.5 |
| 20260508223056 | 25 | 138 | 6.4 | 17.7 | 0.00 | 0.03 | 0.03 | 76 | 1008.8 |
| 20260508221607 | 24 | 142 | 12.9 | 19.3 | 0.00 | 0.03 | 0.03 | 76 | 1008.6 |
| 20260508220014 | 24 | 140 | 12.9 | 20.9 | 0.00 | 0.03 | 0.03 | 77 | 1008.7 |
| 20260508214539 | 24 | 170 | 11.3 | 19.3 | 0.00 | 0.03 | 0.03 | 77 | 1008.9 |
| 20260508213005 | 23 | 148 | 11.3 | 25.7 | 0.00 | 0.03 | 0.03 | 77 | 1009.0 |